createdAt,value
2018-10-18T00:00:00.637Z,72.39
2018-10-18T00:02:32.966Z,72.19
2018-10-18T00:05:06.956Z,72.77
2018-10-18T00:07:39.377Z,72.76
2018-10-18T00:10:11.710Z,72.62
2018-10-18T00:12:43.991Z,72.55
2018-10-18T00:15:16.270Z,72.70
2018-10-18T00:17:48.552Z,72.42
2018-10-18T00:20:20.792Z,72.75
2018-10-18T00:22:53.067Z,72.41
2018-10-18T00:25:25.283Z,72.77
2018-10-18T00:27:57.580Z,72.40
2018-10-18T00:30:29.830Z,72.77
2018-10-18T00:33:02.126Z,72.30
2018-10-18T00:35:34.493Z,71.82
2018-10-18T00:38:07.505Z,71.43
2018-10-18T00:40:39.705Z,71.83
2018-10-18T00:43:12.222Z,71.71
2018-10-18T00:45:44.553Z,71.75
2018-10-18T00:48:16.991Z,71.54
2018-10-18T00:50:49.160Z,71.87
2018-10-18T00:53:21.505Z,71.73
2018-10-18T00:55:53.786Z,71.80
2018-10-18T00:58:26.049Z,71.16
2018-10-18T01:00:58.397Z,71.82
2018-10-18T01:03:30.848Z,71.89
2018-10-18T01:06:03.404Z,71.61
2018-10-18T01:08:35.901Z,71.24
2018-10-18T01:11:08.184Z,71.87
2018-10-18T01:13:40.473Z,71.05
2018-10-18T01:16:12.748Z,71.42
2018-10-18T01:18:45.069Z,71.28
2018-10-18T01:21:17.593Z,71.38
2018-10-18T01:23:49.861Z,71.29
2018-10-18T01:26:22.202Z,71.62
2018-10-18T01:28:54.518Z,71.51
2018-10-18T01:31:26.816Z,71.60
2018-10-18T01:33:59.095Z,71.63
2018-10-18T01:36:31.390Z,71.99
2018-10-18T01:39:04.305Z,71.84
2018-10-18T01:41:36.860Z,71.67
2018-10-18T01:44:09.409Z,72.26
2018-10-18T01:46:41.638Z,72.46
2018-10-18T01:49:13.893Z,72.79
2018-10-18T01:51:46.168Z,72.97
2018-10-18T01:54:18.488Z,72.50
2018-10-18T01:56:50.929Z,72.82
2018-10-18T01:59:23.181Z,72.94
2018-10-18T02:01:55.464Z,73.24
2018-10-18T02:04:27.785Z,73.74
2018-10-18T02:07:00.046Z,73.02
2018-10-18T02:09:32.294Z,73.59
2018-10-18T02:12:05.295Z,73.70
2018-10-18T02:14:37.797Z,73.52
2018-10-18T02:17:10.189Z,74.07
2018-10-18T02:19:42.551Z,73.88
2018-10-18T02:22:14.823Z,73.23
2018-10-18T02:24:47.096Z,73.68
2018-10-18T02:27:19.477Z,73.15
2018-10-18T02:29:51.725Z,73.69
2018-10-18T02:32:24.024Z,73.41
2018-10-18T02:34:56.338Z,73.00
2018-10-18T02:37:28.685Z,73.85
2018-10-18T02:40:01.166Z,73.97
2018-10-18T02:42:33.601Z,73.46
2018-10-18T02:45:05.981Z,73.71
2018-10-18T02:47:38.257Z,73.34
2018-10-18T02:50:10.554Z,74.12
2018-10-18T02:52:42.833Z,73.81
2018-10-18T02:55:15.129Z,73.50
2018-10-18T02:57:47.441Z,73.51
2018-10-18T03:00:19.737Z,74.18
2018-10-18T03:02:52.069Z,74.43
2018-10-18T03:05:24.379Z,74.27
2018-10-18T03:07:56.686Z,74.03
2018-10-18T03:10:29.136Z,74.04
2018-10-18T03:13:01.586Z,73.57
2018-10-18T03:15:33.933Z,73.91
2018-10-18T03:18:06.553Z,73.97
2018-10-18T03:20:38.843Z,74.17
2018-10-18T03:23:11.201Z,74.64
2018-10-18T03:25:43.501Z,74.87
2018-10-18T03:28:15.748Z,74.39
2018-10-18T03:30:47.999Z,74.63
2018-10-18T03:33:20.239Z,74.20
2018-10-18T03:35:52.499Z,74.27
2018-10-18T03:38:24.883Z,74.68
2018-10-18T03:40:57.250Z,74.95
2018-10-18T03:43:29.525Z,75.01
2018-10-18T03:46:01.818Z,75.35
2018-10-18T03:48:34.186Z,75.04
2018-10-18T03:51:06.629Z,75.50
2018-10-18T03:53:38.874Z,76.14
2018-10-18T03:56:11.301Z,76.16
2018-10-18T03:58:43.613Z,76.38
2018-10-18T04:01:15.872Z,75.95
2018-10-18T04:03:48.133Z,76.35
2018-10-18T04:06:20.513Z,77.00
2018-10-18T04:08:52.791Z,76.33
2018-10-18T04:11:25.068Z,76.60
2018-10-18T04:13:57.402Z,76.80
2018-10-18T04:16:29.713Z,76.70
2018-10-18T04:19:02.079Z,77.35
2018-10-18T04:21:34.392Z,77.37
2018-10-18T04:24:06.756Z,77.32
2018-10-18T04:26:38.915Z,75.73
2018-10-18T04:29:11.540Z,75.75
2018-10-18T04:31:43.804Z,75.10
2018-10-18T04:34:16.165Z,75.47
2018-10-18T04:36:48.510Z,75.24
2018-10-18T04:39:20.781Z,75.26
2018-10-18T04:41:53.240Z,74.77
2018-10-18T04:44:25.686Z,75.15
2018-10-18T04:46:57.923Z,75.51
2018-10-18T04:49:30.263Z,75.43
2018-10-18T04:52:02.589Z,75.03
2018-10-18T04:54:34.890Z,75.23
2018-10-18T04:57:07.480Z,74.58
2018-10-18T04:59:39.744Z,75.29
2018-10-18T05:02:12.018Z,75.21
2018-10-18T05:04:55.713Z,75.27
2018-10-18T05:07:27.907Z,74.77
2018-10-18T05:10:00.199Z,75.36
2018-10-18T05:12:32.487Z,75.53
2018-10-18T05:15:06.377Z,75.47
2018-10-18T05:17:45.363Z,75.54
2018-10-18T05:20:17.874Z,75.35
2018-10-18T05:22:50.122Z,74.77
2018-10-18T05:25:22.503Z,75.21
2018-10-18T05:27:54.815Z,75.30
2018-10-18T05:30:27.153Z,75.70
2018-10-18T05:32:59.461Z,75.30
2018-10-18T05:35:31.699Z,75.43
2018-10-18T05:38:04.509Z,76.00
2018-10-18T05:40:36.761Z,75.75
2018-10-18T05:43:09.090Z,75.80
2018-10-18T05:45:41.393Z,75.35
2018-10-18T05:48:13.832Z,75.33
2018-10-18T05:50:46.193Z,75.66
2018-10-18T05:53:18.717Z,76.05
2018-10-18T05:55:50.932Z,75.49
2018-10-18T05:58:23.261Z,75.87
2018-10-18T06:00:55.643Z,75.96
2018-10-18T06:03:27.933Z,75.16
2018-10-18T06:06:00.309Z,75.63
2018-10-18T06:08:32.598Z,75.50
2018-10-18T06:11:30.065Z,74.84
2018-10-18T06:14:02.498Z,75.04
2018-10-18T06:16:34.882Z,74.42
2018-10-18T06:19:07.232Z,75.00
2018-10-18T06:21:39.506Z,75.06
2018-10-18T06:24:11.826Z,75.51
2018-10-18T06:26:44.106Z,75.14
2018-10-18T06:29:16.597Z,75.09
2018-10-18T06:31:48.990Z,74.95
2018-10-18T06:34:21.238Z,75.61
2018-10-18T06:36:53.548Z,75.06
2018-10-18T06:39:25.820Z,74.18
2018-10-18T06:41:58.902Z,73.64
2018-10-18T06:44:31.198Z,72.94
2018-10-18T06:47:03.814Z,72.59
2018-10-18T06:49:36.196Z,71.56
2018-10-18T06:52:08.457Z,71.13
2018-10-18T06:54:40.760Z,70.19
2018-10-18T06:57:13.195Z,70.52
2018-10-18T06:59:45.528Z,70.11
2018-10-18T07:02:17.790Z,69.83
2018-10-18T07:04:50.043Z,70.15
2018-10-18T07:07:22.378Z,70.08
2018-10-18T07:09:54.626Z,69.17
2018-10-18T07:12:26.957Z,69.25
2018-10-18T07:14:59.217Z,69.12
2018-10-18T07:17:31.610Z,68.79
2018-10-18T07:20:04.261Z,68.14
2018-10-18T07:22:37.573Z,68.37
2018-10-18T07:25:11.328Z,67.76
2018-10-18T07:27:43.761Z,67.68
2018-10-18T07:30:16.282Z,67.35
2018-10-18T07:32:48.480Z,67.26
2018-10-18T07:35:20.757Z,66.47
2018-10-18T07:37:53.094Z,67.42
2018-10-18T07:40:25.456Z,66.97
2018-10-18T07:42:57.774Z,66.50
2018-10-18T07:45:30.069Z,65.14
2018-10-18T07:48:02.474Z,65.61
2018-10-18T07:50:34.714Z,65.51
2018-10-18T07:53:07.097Z,65.01
2018-10-18T07:55:39.371Z,65.27
2018-10-18T07:58:11.703Z,64.74
2018-10-18T08:00:44.123Z,63.92
2018-10-18T08:03:16.361Z,63.73
2018-10-18T08:05:48.718Z,62.19
2018-10-18T08:08:21.021Z,62.19
2018-10-18T08:10:53.330Z,61.73
2018-10-18T08:13:25.641Z,62.20
2018-10-18T08:15:58.017Z,62.35
2018-10-18T08:18:30.384Z,61.83
2018-10-18T08:21:02.788Z,62.09
2018-10-18T08:23:35.078Z,61.66
2018-10-18T08:26:07.488Z,61.27
2018-10-18T08:28:39.803Z,59.99
2018-10-18T08:31:12.239Z,59.42
2018-10-18T08:33:44.414Z,59.69
2018-10-18T08:36:16.805Z,59.56
2018-10-18T08:38:49.103Z,60.25
2018-10-18T08:41:21.401Z,59.42
2018-10-18T08:43:53.736Z,58.91
2018-10-18T08:46:26.329Z,58.78
2018-10-18T08:48:58.638Z,59.69
2018-10-18T08:51:31.345Z,58.11
2018-10-18T08:54:03.632Z,57.11
2018-10-18T08:56:35.948Z,56.89
2018-10-18T08:59:08.292Z,56.46
2018-10-18T09:01:40.598Z,56.73
2018-10-18T09:04:12.922Z,56.93
2018-10-18T09:06:45.200Z,56.02
2018-10-18T09:09:17.766Z,56.58
2018-10-18T09:11:49.878Z,56.48
2018-10-18T09:14:22.179Z,55.75
2018-10-18T09:16:54.490Z,55.88
2018-10-18T09:19:26.737Z,56.05
2018-10-18T09:21:59.029Z,55.28
2018-10-18T09:24:31.309Z,55.82
2018-10-18T09:27:03.636Z,55.74
2018-10-18T09:29:35.949Z,55.21
2018-10-18T09:32:08.557Z,54.48
2018-10-18T09:34:40.839Z,54.80
2018-10-18T09:37:13.222Z,54.17
2018-10-18T09:39:45.442Z,54.22
2018-10-18T09:42:17.714Z,53.90
2018-10-18T09:44:50.170Z,53.62
2018-10-18T09:47:22.430Z,52.15
2018-10-18T09:49:54.733Z,52.27
2018-10-18T09:52:27.049Z,52.38
2018-10-18T09:54:59.360Z,52.52
2018-10-18T09:57:31.618Z,52.46
2018-10-18T10:00:04.265Z,52.03
2018-10-18T10:02:42.069Z,53.12
2018-10-18T10:05:14.369Z,52.37
2018-10-18T10:07:46.630Z,52.41
2018-10-18T10:10:19.022Z,52.42
2018-10-18T10:12:51.308Z,52.46
2018-10-18T10:15:23.805Z,51.35
2018-10-18T10:17:56.114Z,52.13
2018-10-18T10:20:28.433Z,51.46
2018-10-18T10:23:00.797Z,51.30
2018-10-18T10:25:33.085Z,51.17
2018-10-18T10:28:05.417Z,51.46
2018-10-18T10:30:37.748Z,51.58
2018-10-18T10:33:10.101Z,50.40
2018-10-18T10:35:42.450Z,50.93
2018-10-18T10:38:14.797Z,50.78
2018-10-18T10:40:47.121Z,50.17
2018-10-18T10:43:19.485Z,50.07
2018-10-18T10:45:51.939Z,50.46
2018-10-18T10:48:24.113Z,50.11
2018-10-18T10:50:56.433Z,49.65
2018-10-18T10:53:28.675Z,49.07
2018-10-18T10:56:01.049Z,49.50
2018-10-18T10:58:33.537Z,49.11
2018-10-18T11:01:25.147Z,48.91
2018-10-18T11:03:58.907Z,48.30
2018-10-18T11:06:31.180Z,48.07
2018-10-18T11:09:04.772Z,48.15
2018-10-18T11:11:37.189Z,48.21
2018-10-18T11:14:09.503Z,48.65
2018-10-18T11:16:41.782Z,46.61
2018-10-18T11:19:14.078Z,45.77
2018-10-18T11:21:46.397Z,44.39
2018-10-18T11:24:18.864Z,43.73
2018-10-18T11:26:51.316Z,42.70
2018-10-18T11:29:23.776Z,43.63
2018-10-18T11:31:56.087Z,43.10
2018-10-18T11:34:28.406Z,42.69
2018-10-18T11:37:00.782Z,42.62
2018-10-18T11:39:33.105Z,43.25
2018-10-18T11:42:05.735Z,42.79
2018-10-18T11:44:40.014Z,42.13
2018-10-18T11:47:12.313Z,42.78
2018-10-18T11:49:44.605Z,42.19
2018-10-18T11:52:16.940Z,42.73
2018-10-18T11:54:49.251Z,42.24
2018-10-18T11:57:21.519Z,42.22
2018-10-18T11:59:53.883Z,42.27
2018-10-18T12:02:26.222Z,43.13
2018-10-18T12:04:58.515Z,41.88
2018-10-18T12:07:30.903Z,41.61
2018-10-18T12:10:03.257Z,42.12
2018-10-18T12:12:35.743Z,42.11
2018-10-18T12:15:10.391Z,42.83
2018-10-18T12:17:42.820Z,42.71
2018-10-18T12:20:16.482Z,43.29
2018-10-18T12:22:48.718Z,42.63
2018-10-18T12:25:20.980Z,43.38
2018-10-18T12:27:53.335Z,44.14
2018-10-18T12:30:25.625Z,42.96
2018-10-18T12:32:57.962Z,42.93
2018-10-18T12:35:30.457Z,43.52
2018-10-18T12:38:02.757Z,42.76
2018-10-18T12:40:35.291Z,42.45
2018-10-18T12:43:07.445Z,42.27
2018-10-18T12:45:39.729Z,42.99
2018-10-18T12:48:12.085Z,42.40
2018-10-18T12:50:44.490Z,42.25
2018-10-18T12:53:16.742Z,42.60
2018-10-18T12:55:49.072Z,43.11
2018-10-18T12:58:21.414Z,42.36
2018-10-18T13:00:53.698Z,42.00
2018-10-18T13:03:26.136Z,42.44
2018-10-18T13:05:58.402Z,42.28
2018-10-18T13:08:30.670Z,41.28
2018-10-18T13:11:03.237Z,41.80
2018-10-18T13:13:36.525Z,41.72
2018-10-18T13:16:08.787Z,41.95
2018-10-18T13:18:41.194Z,41.61
2018-10-18T13:21:13.831Z,40.91
2018-10-18T13:23:46.191Z,40.78
2018-10-18T13:26:18.629Z,41.21
2018-10-18T13:28:50.923Z,40.66
2018-10-18T13:31:23.549Z,40.56
2018-10-18T13:33:55.990Z,40.52
2018-10-18T13:36:29.474Z,41.47
2018-10-18T13:39:01.943Z,41.64
2018-10-18T13:41:34.254Z,41.74
2018-10-18T13:44:07.133Z,41.01
2018-10-18T13:46:39.886Z,41.18
2018-10-18T13:49:12.210Z,41.38
2018-10-18T13:51:44.658Z,41.63
2018-10-18T13:54:17.076Z,42.05
2018-10-18T13:56:49.391Z,41.42
2018-10-18T13:59:33.144Z,41.69
2018-10-18T14:02:05.394Z,42.07
2018-10-18T14:04:37.866Z,41.60
2018-10-18T14:07:10.258Z,41.34
2018-10-18T14:09:42.542Z,41.88
2018-10-18T14:12:14.965Z,41.66
2018-10-18T14:14:47.289Z,41.68
2018-10-18T14:17:19.739Z,41.86
2018-10-18T14:19:52.013Z,41.72
2018-10-18T14:22:24.335Z,41.83
2018-10-18T14:24:56.721Z,42.14
2018-10-18T14:27:29.556Z,42.08
2018-10-18T14:30:02.037Z,41.90
2018-10-18T14:32:34.326Z,41.82
2018-10-18T14:35:08.281Z,42.21
2018-10-18T14:37:40.712Z,41.52
2018-10-18T14:40:13.041Z,41.29
2018-10-18T14:42:45.418Z,42.18
2018-10-18T14:45:17.804Z,41.53
2018-10-18T14:47:50.247Z,41.36
2018-10-18T14:50:23.024Z,41.54
2018-10-18T14:52:55.280Z,41.79
2018-10-18T14:55:27.623Z,41.65
2018-10-18T14:58:00.011Z,41.29
2018-10-18T15:00:32.306Z,41.58
2018-10-18T15:03:04.953Z,42.29
2018-10-18T15:05:37.353Z,42.38
2018-10-18T15:08:09.669Z,42.16
2018-10-18T15:10:42.017Z,41.98
2018-10-18T15:13:14.517Z,41.80
2018-10-18T15:15:46.842Z,42.08
2018-10-18T15:18:19.138Z,43.00
2018-10-18T15:20:51.445Z,43.25
2018-10-18T15:23:23.890Z,43.24
2018-10-18T15:25:56.403Z,43.84
2018-10-18T15:28:28.707Z,43.84
2018-10-18T15:31:01.063Z,44.22
2018-10-18T15:33:33.400Z,43.94
2018-10-18T15:36:05.764Z,44.13
2018-10-18T15:38:38.304Z,44.68
2018-10-18T15:41:10.842Z,44.21
2018-10-18T15:43:43.216Z,44.12
2018-10-18T15:46:15.615Z,44.81
2018-10-18T15:48:47.955Z,45.08
2018-10-18T15:51:20.373Z,45.78
2018-10-18T15:53:52.721Z,44.93
2018-10-18T15:56:25.199Z,45.74
2018-10-18T15:58:57.644Z,45.58
2018-10-18T16:01:29.996Z,46.26
2018-10-18T16:04:02.494Z,46.62
2018-10-18T16:06:34.989Z,47.43
2018-10-18T16:09:09.261Z,47.14
2018-10-18T16:11:42.004Z,48.36
2018-10-18T16:14:14.733Z,48.33
2018-10-18T16:16:47.129Z,47.98
2018-10-18T16:19:19.545Z,48.58
2018-10-18T16:21:52.066Z,48.02
2018-10-18T16:24:24.575Z,48.93
2018-10-18T16:26:56.797Z,48.86
2018-10-18T16:29:29.111Z,49.41
2018-10-18T16:32:01.711Z,49.29
2018-10-18T16:34:34.103Z,49.67
2018-10-18T16:37:06.528Z,50.45
2018-10-18T16:39:39.071Z,51.01
2018-10-18T16:42:11.679Z,51.37
2018-10-18T16:44:44.173Z,50.65
2018-10-18T16:47:16.498Z,51.85
2018-10-18T16:49:48.935Z,51.47
2018-10-18T16:52:21.283Z,51.64
2018-10-18T16:54:53.638Z,51.53
2018-10-18T16:57:26.009Z,51.83
2018-10-18T16:59:58.359Z,52.07
2018-10-18T17:02:30.740Z,52.79
2018-10-18T17:05:03.168Z,52.76
2018-10-18T17:07:35.832Z,53.56
2018-10-18T17:10:08.242Z,53.01
2018-10-18T17:12:40.493Z,53.18
2018-10-18T17:15:12.987Z,53.38
2018-10-18T17:17:45.565Z,54.80
2018-10-18T17:20:18.145Z,54.62
2018-10-18T17:22:50.401Z,54.57
2018-10-18T17:25:22.776Z,54.86
2018-10-18T17:27:55.133Z,54.87
2018-10-18T17:30:27.551Z,55.49
2018-10-18T17:32:59.881Z,55.81
2018-10-18T17:35:32.217Z,55.40
2018-10-18T17:38:06.272Z,55.73
2018-10-18T17:40:38.593Z,56.66
2018-10-18T17:43:11.074Z,56.67
2018-10-18T17:45:43.412Z,56.71
2018-10-18T17:48:15.875Z,57.52
2018-10-18T17:50:48.374Z,57.40
2018-10-18T17:53:20.786Z,57.84
2018-10-18T17:55:53.119Z,57.93
2018-10-18T17:58:25.562Z,57.91
2018-10-18T18:00:58.049Z,58.56
2018-10-18T18:03:30.763Z,58.32
2018-10-18T18:06:03.303Z,59.15
2018-10-18T18:08:35.679Z,58.95
2018-10-18T18:11:08.081Z,59.25
2018-10-18T18:13:40.507Z,59.50
2018-10-18T18:16:12.943Z,59.70
2018-10-18T18:18:45.596Z,60.03
2018-10-18T18:21:17.996Z,60.32
2018-10-18T18:23:50.355Z,60.39
2018-10-18T18:26:32.447Z,60.84
2018-10-18T18:28:55.268Z,60.99
2018-10-18T18:31:27.691Z,60.82
2018-10-18T18:34:00.141Z,60.71
2018-10-18T18:36:32.670Z,61.22
2018-10-18T18:39:07.109Z,60.90
2018-10-18T18:41:40.697Z,61.36
2018-10-18T18:44:13.147Z,61.00
2018-10-18T18:46:45.607Z,61.74
2018-10-18T18:49:18.049Z,61.33
2018-10-18T18:51:50.472Z,62.32
2018-10-18T18:54:23.127Z,62.31
2018-10-18T18:56:55.523Z,62.92
2018-10-18T18:59:27.941Z,63.65
2018-10-18T19:02:00.283Z,63.17
2018-10-18T19:04:32.655Z,63.47
2018-10-18T19:07:05.074Z,63.89
2018-10-18T19:09:37.571Z,63.38
2018-10-18T19:12:10.014Z,64.18
2018-10-18T19:14:42.434Z,63.51
2018-10-18T19:17:14.748Z,64.69
2018-10-18T19:19:47.198Z,65.20
2018-10-18T19:22:19.782Z,65.09
2018-10-18T19:24:52.873Z,65.10
2018-10-18T19:27:25.296Z,65.69
2018-10-18T19:29:57.642Z,66.15
2018-10-18T19:32:30.089Z,66.04
2018-10-18T19:35:02.512Z,66.22
2018-10-18T19:37:35.224Z,66.66
2018-10-18T19:40:08.218Z,66.14
2018-10-18T19:42:40.608Z,67.16
2018-10-18T19:45:13.006Z,67.45
2018-10-18T19:47:45.595Z,67.25
2018-10-18T19:50:18.102Z,67.91
2018-10-18T19:52:50.539Z,67.79
2018-10-18T19:55:22.974Z,68.01
2018-10-18T19:57:55.659Z,68.23
2018-10-18T20:00:28.230Z,68.07
2018-10-18T20:03:00.557Z,68.78
2018-10-18T20:05:32.921Z,68.65
2018-10-18T20:08:05.476Z,68.66
2018-10-18T20:10:37.846Z,68.98
2018-10-18T20:13:10.519Z,69.09
2018-10-18T20:15:42.932Z,69.53
2018-10-18T20:18:15.434Z,69.92
2018-10-18T20:20:47.682Z,69.54
2018-10-18T20:23:20.001Z,68.93
2018-10-18T20:25:52.803Z,69.10
2018-10-18T20:28:25.021Z,69.48
2018-10-18T20:30:57.367Z,69.78
2018-10-18T20:33:29.692Z,69.82
2018-10-18T20:36:02.177Z,69.94
2018-10-18T20:38:34.662Z,70.06
2018-10-18T20:41:07.086Z,69.92
2018-10-18T20:43:39.539Z,70.09
2018-10-18T20:46:11.882Z,70.33
2018-10-18T20:48:44.231Z,70.49
2018-10-18T20:51:16.596Z,70.40
2018-10-18T20:53:48.935Z,71.06
2018-10-18T20:56:21.245Z,70.99
2018-10-18T20:58:53.562Z,70.95
2018-10-18T21:01:25.870Z,71.21
2018-10-18T21:03:58.178Z,71.87
2018-10-18T21:06:30.763Z,71.55
2018-10-18T21:09:03.802Z,71.49
2018-10-18T21:11:36.197Z,71.77
2018-10-18T21:14:08.466Z,71.52
2018-10-18T21:16:40.789Z,71.44
2018-10-18T21:19:13.046Z,71.80
2018-10-18T21:21:45.402Z,72.06
2018-10-18T21:24:17.721Z,72.42
2018-10-18T21:26:50.224Z,72.44
2018-10-18T21:29:22.518Z,72.60
2018-10-18T21:31:54.933Z,72.93
2018-10-18T21:34:27.269Z,72.95
2018-10-18T21:36:59.598Z,73.18
2018-10-18T21:39:33.166Z,73.42
2018-10-18T21:42:05.509Z,73.59
2018-10-18T21:44:37.932Z,73.30
2018-10-18T21:47:11.121Z,73.39
2018-10-18T21:49:43.546Z,73.48
2018-10-18T21:52:16.006Z,73.81
2018-10-18T21:54:48.294Z,73.40
2018-10-18T21:57:20.690Z,73.54
2018-10-18T21:59:52.999Z,73.41
2018-10-18T22:02:25.335Z,73.38
2018-10-18T22:04:57.630Z,73.46
2018-10-18T22:07:29.901Z,73.37
2018-10-18T22:10:02.253Z,73.51
2018-10-18T22:12:34.747Z,73.45
2018-10-18T22:15:08.640Z,73.37
2018-10-18T22:17:41.063Z,73.10
2018-10-18T22:20:13.369Z,73.47
2018-10-18T22:22:45.686Z,73.73
2018-10-18T22:25:18.028Z,73.68
2018-10-18T22:27:50.361Z,73.82
2018-10-18T22:30:22.677Z,74.02
2018-10-18T22:32:55.081Z,74.23
2018-10-18T22:35:27.346Z,74.13
2018-10-18T22:37:59.686Z,74.55
2018-10-18T22:40:32.023Z,74.79
2018-10-18T22:43:04.649Z,75.00
2018-10-18T22:45:36.970Z,75.06
2018-10-18T22:48:09.285Z,75.25
2018-10-18T22:50:41.708Z,75.12
2018-10-18T22:53:14.222Z,75.58
2018-10-18T22:55:46.413Z,75.27
2018-10-18T22:58:18.734Z,76.31
2018-10-18T23:00:51.022Z,76.59
2018-10-18T23:03:23.329Z,76.72
2018-10-18T23:05:55.604Z,76.71
2018-10-18T23:08:27.894Z,76.83
2018-10-18T23:11:00.236Z,77.24
2018-10-18T23:13:32.564Z,77.08
2018-10-18T23:16:04.937Z,76.95
2018-10-18T23:18:37.242Z,77.09
2018-10-18T23:21:09.657Z,76.86
2018-10-18T23:23:41.961Z,77.02
2018-10-18T23:26:14.214Z,77.55
2018-10-18T23:28:46.498Z,77.08
2018-10-18T23:31:18.943Z,76.92
2018-10-18T23:33:51.272Z,76.81
2018-10-18T23:36:23.809Z,76.61
2018-10-18T23:38:56.206Z,76.10
2018-10-18T23:41:28.484Z,75.72
2018-10-18T23:44:00.914Z,75.84
2018-10-18T23:46:33.365Z,76.20
2018-10-18T23:49:05.690Z,76.45
2018-10-18T23:51:38.013Z,76.54
2018-10-18T23:54:10.270Z,76.44
2018-10-18T23:56:42.598Z,76.68
2018-10-18T23:59:15.011Z,76.60
